createdAt,value
2016-10-14T00:00:34.200Z,928.19
2016-10-14T00:01:46.913Z,928.13
2016-10-14T00:02:59.961Z,928.16
2016-10-14T00:04:13.197Z,928.16
2016-10-14T00:05:26.441Z,928.16
2016-10-14T00:06:39.580Z,928.13
2016-10-14T00:07:52.105Z,928.08
2016-10-14T00:09:04.624Z,928.09
2016-10-14T00:10:17.649Z,928.04
2016-10-14T00:11:31.424Z,928.04
2016-10-14T00:12:44.432Z,928.04
2016-10-14T00:13:58.096Z,928.02
2016-10-14T00:15:11.242Z,928.08
2016-10-14T00:16:24.572Z,928.02
2016-10-14T00:17:37.207Z,927.97
2016-10-14T00:18:49.675Z,927.95
2016-10-14T00:20:02.717Z,927.91
2016-10-14T00:21:15.226Z,927.86
2016-10-14T00:22:28.318Z,927.85
2016-10-14T00:23:41.426Z,927.78
2016-10-14T00:24:53.520Z,927.7
2016-10-14T00:26:07.162Z,927.67
2016-10-14T00:27:20.838Z,927.69
2016-10-14T00:28:33.370Z,927.67
2016-10-14T00:29:46.373Z,927.64
2016-10-14T00:30:58.961Z,927.6
2016-10-14T00:32:11.382Z,927.63
2016-10-14T00:33:23.820Z,927.7
2016-10-14T00:34:37.357Z,927.67
2016-10-14T00:35:49.293Z,927.59
2016-10-14T00:37:02.340Z,927.53
2016-10-14T00:38:15.331Z,927.58
2016-10-14T00:39:27.351Z,927.54
2016-10-14T00:40:39.829Z,927.54
2016-10-14T00:41:52.822Z,927.49
2016-10-14T00:43:06.313Z,927.51
2016-10-14T00:44:19.286Z,927.43
2016-10-14T00:45:32.560Z,927.33
2016-10-14T00:46:45.560Z,927.3
2016-10-14T00:47:58.009Z,927.17
2016-10-14T00:49:10.594Z,927.17
2016-10-14T00:50:23.685Z,927.18
2016-10-14T00:51:36.653Z,927.14
2016-10-14T00:52:50.125Z,927.19
2016-10-14T00:54:03.646Z,927.25
2016-10-14T00:55:17.191Z,927.36
2016-10-14T00:56:30.308Z,927.3
2016-10-14T00:57:42.362Z,927.26
2016-10-14T00:58:55.898Z,927.31
2016-10-14T01:00:09.152Z,927.34
2016-10-14T01:01:22.808Z,927.37
2016-10-14T01:02:35.354Z,927.33
2016-10-14T01:03:48.452Z,927.25
2016-10-14T01:05:02.087Z,927.27
2016-10-14T01:06:15.825Z,927.26
2016-10-14T01:07:28.949Z,927.3
2016-10-14T01:08:42.690Z,927.33
2016-10-14T01:09:56.467Z,927.38
2016-10-14T01:11:09.036Z,927.44
2016-10-14T01:12:22.161Z,927.48
2016-10-14T01:13:35.822Z,927.45
2016-10-14T01:14:48.901Z,927.54
2016-10-14T01:16:02.493Z,927.57
2016-10-14T01:17:15.575Z,927.63
2016-10-14T01:18:28.104Z,927.59
2016-10-14T01:19:41.649Z,927.64
2016-10-14T01:20:55.168Z,927.62
2016-10-14T01:22:08.900Z,927.63
2016-10-14T01:23:22.610Z,927.61
2016-10-14T01:24:35.164Z,927.61
2016-10-14T01:25:48.789Z,927.59
2016-10-14T01:27:02.314Z,927.6
2016-10-14T01:28:15.888Z,927.59
2016-10-14T01:29:28.901Z,927.55
2016-10-14T01:30:41.343Z,927.56
2016-10-14T01:31:54.347Z,927.55
2016-10-14T01:33:07.271Z,927.54
2016-10-14T01:34:20.278Z,927.52
2016-10-14T01:35:32.714Z,927.53
2016-10-14T01:36:45.229Z,927.46
2016-10-14T01:37:58.770Z,927.51
2016-10-14T01:39:11.788Z,927.52
2016-10-14T01:40:24.222Z,927.48
2016-10-14T01:41:37.782Z,927.48
2016-10-14T01:42:50.852Z,927.49
2016-10-14T01:44:04.309Z,927.52
2016-10-14T01:45:17.317Z,927.58
2016-10-14T01:46:30.798Z,927.56
2016-10-14T01:47:43.844Z,927.48
2016-10-14T01:48:56.840Z,927.49
2016-10-14T01:50:09.336Z,927.48
2016-10-14T01:51:22.354Z,927.49
2016-10-14T01:52:35.845Z,927.53
2016-10-14T01:53:48.802Z,927.55
2016-10-14T01:55:02.253Z,927.62
2016-10-14T01:56:14.726Z,927.64
2016-10-14T01:57:26.668Z,927.69
2016-10-14T01:58:39.674Z,927.71
2016-10-14T01:59:52.591Z,927.76
2016-10-14T02:01:06.181Z,927.74
2016-10-14T02:02:19.159Z,927.74
2016-10-14T02:03:32.198Z,927.74
2016-10-14T02:04:45.831Z,927.7
2016-10-14T02:05:58.788Z,927.7
2016-10-14T02:07:11.829Z,927.6
2016-10-14T02:08:25.385Z,927.61
2016-10-14T02:09:37.922Z,927.59
2016-10-14T02:10:52.862Z,927.53
2016-10-14T02:12:05.936Z,927.5
2016-10-14T02:13:18.392Z,927.47
2016-10-14T02:14:31.865Z,927.52
2016-10-14T02:15:44.281Z,927.47
2016-10-14T02:16:57.894Z,927.47
2016-10-14T02:18:10.387Z,927.42
2016-10-14T02:19:23.927Z,927.35
2016-10-14T02:20:35.984Z,927.32
2016-10-14T02:21:49.025Z,927.27
2016-10-14T02:23:02.532Z,927.3
2016-10-14T02:24:15.587Z,927.3
2016-10-14T02:25:28.637Z,927.36
2016-10-14T02:26:42.135Z,927.43
2016-10-14T02:27:54.554Z,927.36
2016-10-14T02:29:07.603Z,927.31
2016-10-14T02:30:20.668Z,927.29
2016-10-14T02:31:33.659Z,927.28
2016-10-14T02:32:46.643Z,927.29
2016-10-14T02:33:59.637Z,927.19
2016-10-14T02:35:12.715Z,927.23
2016-10-14T02:36:25.744Z,927.22
2016-10-14T02:37:38.204Z,927.2
2016-10-14T02:38:51.180Z,927.16
2016-10-14T02:40:03.135Z,927.21
2016-10-14T02:41:16.678Z,927.21
2016-10-14T02:42:29.630Z,927.21
2016-10-14T02:43:43.187Z,927.19
2016-10-14T02:44:55.638Z,927.23
2016-10-14T02:46:09.097Z,927.23
2016-10-14T02:47:22.582Z,927.24
2016-10-14T02:48:35.614Z,927.24
2016-10-14T02:49:49.128Z,927.17
2016-10-14T02:51:02.612Z,927.13
2016-10-14T02:52:15.630Z,927.06
2016-10-14T02:53:28.568Z,926.95
2016-10-14T02:54:42.069Z,926.95
2016-10-14T02:55:55.047Z,926.97
2016-10-14T02:57:08.536Z,926.96
2016-10-14T02:58:22.094Z,926.98
2016-10-14T02:59:34.567Z,927
2016-10-14T03:00:46.575Z,927.01
2016-10-14T03:02:00.091Z,927.01
2016-10-14T03:03:13.043Z,927.07
2016-10-14T03:04:26.569Z,927.08
2016-10-14T03:05:39.081Z,927.14
2016-10-14T03:06:52.009Z,927.17
2016-10-14T03:08:05.494Z,927.17
2016-10-14T03:09:18.976Z,927.14
2016-10-14T03:10:31.418Z,927.17
2016-10-14T03:11:44.364Z,927.12
2016-10-14T03:12:57.285Z,927.08
2016-10-14T03:14:10.228Z,927.12
2016-10-14T03:15:23.751Z,927.05
2016-10-14T03:16:36.762Z,927.1
2016-10-14T03:17:49.785Z,927.15
2016-10-14T03:19:03.289Z,927.24
2016-10-14T03:20:16.313Z,927.36
2016-10-14T03:21:29.847Z,927.45
2016-10-14T03:22:43.403Z,927.41
2016-10-14T03:23:56.414Z,927.37
2016-10-14T03:25:09.980Z,927.39
2016-10-14T03:26:21.951Z,927.36
2016-10-14T03:27:34.940Z,927.34
2016-10-14T03:28:48.507Z,927.35
2016-10-14T03:30:01.456Z,927.39
2016-10-14T03:31:14.977Z,927.32
2016-10-14T03:32:28.543Z,927.3
2016-10-14T03:33:42.147Z,927.28
2016-10-14T03:34:54.127Z,927.26
2016-10-14T03:36:07.160Z,927.18
2016-10-14T03:37:20.169Z,927.11
2016-10-14T03:38:33.161Z,927.09
2016-10-14T03:39:46.206Z,927.09
2016-10-14T03:40:58.724Z,927.03
2016-10-14T03:42:11.193Z,927.07
2016-10-14T03:43:24.250Z,927.07
2016-10-14T03:44:36.696Z,927.06
2016-10-14T03:45:50.254Z,927.06
2016-10-14T03:47:03.749Z,927.03
2016-10-14T03:48:16.253Z,927.08
2016-10-14T03:49:29.759Z,927.08
2016-10-14T03:50:42.782Z,927.13
2016-10-14T03:51:55.767Z,927.13
2016-10-14T03:53:09.274Z,927.13
2016-10-14T03:54:22.287Z,927.09
2016-10-14T03:55:34.216Z,927.09
2016-10-14T03:56:47.762Z,927.09
2016-10-14T03:58:00.832Z,927.05
2016-10-14T03:59:12.835Z,927.03
2016-10-14T04:00:26.432Z,926.95
2016-10-14T04:01:39.484Z,926.96
2016-10-14T04:02:52.482Z,926.87
2016-10-14T04:04:05.982Z,926.89
2016-10-14T04:05:17.966Z,926.82
2016-10-14T04:06:31.567Z,926.82
2016-10-14T04:07:44.104Z,926.89
2016-10-14T04:08:57.157Z,926.89
2016-10-14T04:10:10.129Z,926.95
2016-10-14T04:11:23.676Z,926.94
2016-10-14T04:12:37.161Z,926.91
2016-10-14T04:13:50.185Z,926.89
2016-10-14T04:15:03.217Z,926.85
2016-10-14T04:16:16.736Z,926.88
2016-10-14T04:17:29.214Z,926.86
2016-10-14T04:18:41.682Z,926.89
2016-10-14T04:19:54.238Z,926.93
2016-10-14T04:21:07.824Z,926.95
2016-10-14T04:22:20.343Z,926.94
2016-10-14T04:23:32.235Z,926.93
2016-10-14T04:24:45.803Z,926.92
2016-10-14T04:25:58.850Z,926.93
2016-10-14T04:27:12.391Z,926.92
2016-10-14T04:28:25.916Z,926.93
2016-10-14T04:29:39.432Z,926.9
2016-10-14T04:30:53.031Z,926.87
2016-10-14T04:32:06.015Z,926.82
2016-10-14T04:33:18.476Z,926.78
2016-10-14T04:34:32.009Z,926.78
2016-10-14T04:35:45.033Z,926.78
2016-10-14T04:36:57.511Z,926.78
2016-10-14T04:38:10.506Z,926.73
2016-10-14T04:39:23.015Z,926.72
2016-10-14T04:40:35.978Z,926.74
2016-10-14T04:41:48.964Z,926.73
2016-10-14T04:43:01.982Z,926.71
2016-10-14T04:44:15.025Z,926.65
2016-10-14T04:45:28.550Z,926.61
2016-10-14T04:46:41.592Z,926.59
2016-10-14T04:47:55.080Z,926.58
2016-10-14T04:49:08.690Z,926.55
2016-10-14T04:50:21.749Z,926.52
2016-10-14T04:51:34.732Z,926.5
2016-10-14T04:52:48.315Z,926.46
2016-10-14T04:54:01.792Z,926.45
2016-10-14T04:55:14.265Z,926.42
2016-10-14T04:56:27.279Z,926.42
2016-10-14T04:57:40.324Z,926.39
2016-10-14T04:58:53.850Z,926.39
2016-10-14T05:00:06.861Z,926.34
2016-10-14T05:01:20.379Z,926.36
2016-10-14T05:02:33.436Z,926.36
2016-10-14T05:03:46.446Z,926.38
2016-10-14T05:04:59.993Z,926.34
2016-10-14T05:06:13.030Z,926.31
2016-10-14T05:07:26.054Z,926.3
2016-10-14T05:08:38.546Z,926.33
2016-10-14T05:09:52.054Z,926.3
2016-10-14T05:11:05.315Z,926.34
2016-10-14T05:12:17.777Z,926.29
2016-10-14T05:13:30.765Z,926.32
2016-10-14T05:14:44.294Z,926.35
2016-10-14T05:15:57.779Z,926.3
2016-10-14T05:17:11.385Z,926.27
2016-10-14T05:18:24.411Z,926.25
2016-10-14T05:19:37.954Z,926.21
2016-10-14T05:20:51.000Z,926.23
2016-10-14T05:22:03.463Z,926.19
2016-10-14T05:23:17.050Z,926.23
2016-10-14T05:24:29.529Z,926.23
2016-10-14T05:25:41.980Z,926.23
2016-10-14T05:26:55.576Z,926.23
2016-10-14T05:28:09.150Z,926.16
2016-10-14T05:29:21.621Z,926.19
2016-10-14T05:30:33.560Z,926.11
2016-10-14T05:31:47.124Z,926.09
2016-10-14T05:33:00.147Z,926.1
2016-10-14T05:34:13.241Z,926.1
2016-10-14T05:35:26.781Z,926.06
2016-10-14T05:36:40.384Z,926.05
2016-10-14T05:37:53.376Z,926.07
2016-10-14T05:39:05.811Z,926.09
2016-10-14T05:40:18.488Z,926.11
2016-10-14T05:41:31.017Z,926.11
2016-10-14T05:42:44.014Z,926.15
2016-10-14T05:43:56.554Z,926.14
2016-10-14T05:45:09.569Z,926.13
2016-10-14T05:46:22.608Z,926.14
2016-10-14T05:47:35.151Z,926.11
2016-10-14T05:48:48.135Z,926.03
2016-10-14T05:50:00.603Z,926.06
2016-10-14T05:51:13.145Z,926.08
2016-10-14T05:52:26.768Z,926.01
2016-10-14T05:53:38.710Z,926.03
2016-10-14T05:54:51.693Z,926.01
2016-10-14T05:56:03.685Z,925.97
2016-10-14T05:57:16.683Z,926.01
2016-10-14T05:58:30.199Z,925.96
2016-10-14T05:59:43.226Z,925.95
2016-10-14T06:00:56.742Z,925.93
2016-10-14T06:02:10.278Z,925.94
2016-10-14T06:03:23.299Z,925.85
2016-10-14T06:04:36.838Z,925.84
2016-10-14T06:05:50.551Z,925.85
2016-10-14T06:07:04.139Z,925.82
2016-10-14T06:08:16.630Z,925.79
2016-10-14T06:09:30.192Z,925.79
2016-10-14T06:10:43.414Z,925.78
2016-10-14T06:11:56.908Z,925.8
2016-10-14T06:13:09.970Z,925.85
2016-10-14T06:14:22.496Z,925.85
2016-10-14T06:15:35.513Z,925.88
2016-10-14T06:16:49.093Z,925.87
2016-10-14T06:18:02.629Z,925.84
2016-10-14T06:19:16.190Z,925.83
2016-10-14T06:20:29.729Z,925.78
2016-10-14T06:21:42.713Z,925.76
2016-10-14T06:22:56.214Z,925.75
2016-10-14T06:24:09.756Z,925.81
2016-10-14T06:25:23.305Z,925.84
2016-10-14T06:26:36.809Z,925.86
2016-10-14T06:27:49.769Z,925.88
2016-10-14T06:29:01.196Z,925.89
2016-10-14T06:30:14.727Z,925.91
2016-10-14T06:31:27.704Z,925.92
2016-10-14T06:32:41.209Z,925.9
2016-10-14T06:33:54.743Z,925.92
2016-10-14T06:35:07.236Z,925.88
2016-10-14T06:36:20.823Z,925.89
2016-10-14T06:37:34.456Z,925.92
2016-10-14T06:38:47.423Z,925.86
2016-10-14T06:40:00.431Z,925.91
2016-10-14T06:41:12.927Z,925.9
2016-10-14T06:42:26.522Z,925.88
2016-10-14T06:43:40.092Z,925.85
2016-10-14T06:44:53.611Z,925.76
2016-10-14T06:46:07.200Z,925.76
2016-10-14T06:47:20.214Z,925.71
2016-10-14T06:48:32.766Z,925.74
2016-10-14T06:49:46.330Z,925.68
2016-10-14T06:50:59.371Z,925.69
2016-10-14T06:52:12.541Z,925.68
2016-10-14T06:53:25.544Z,925.64
2016-10-14T06:54:38.588Z,925.67
2016-10-14T06:55:51.833Z,925.67
2016-10-14T06:57:05.379Z,925.67
2016-10-14T06:58:18.950Z,925.62
2016-10-14T06:59:32.023Z,925.66
2016-10-14T07:00:44.578Z,925.66
2016-10-14T07:01:58.127Z,925.68
2016-10-14T07:03:11.343Z,925.65
2016-10-14T07:04:24.909Z,925.66
2016-10-14T07:05:37.444Z,925.6
2016-10-14T07:06:50.903Z,925.64
2016-10-14T07:08:04.509Z,925.66
2016-10-14T07:09:16.971Z,925.65
2016-10-14T07:10:30.039Z,925.72
2016-10-14T07:11:43.022Z,925.67
2016-10-14T07:12:56.023Z,925.71
2016-10-14T07:14:09.539Z,925.72
2016-10-14T07:15:23.057Z,925.7
2016-10-14T07:16:36.522Z,925.78
2016-10-14T07:17:50.045Z,925.83
2016-10-14T07:19:03.603Z,925.86
2016-10-14T07:20:17.118Z,925.93
2016-10-14T07:21:30.170Z,925.92
2016-10-14T07:22:43.170Z,925.86
2016-10-14T07:23:56.750Z,925.87
2016-10-14T07:25:10.312Z,925.84
2016-10-14T07:26:23.808Z,925.9
2016-10-14T07:27:36.790Z,925.96
2016-10-14T07:28:50.487Z,925.92
2016-10-14T07:30:04.010Z,925.97
2016-10-14T07:31:16.535Z,925.98
2016-10-14T07:32:29.001Z,925.98
2016-10-14T07:33:42.550Z,925.98
2016-10-14T07:34:56.044Z,925.99
2016-10-14T07:36:08.535Z,925.99
2016-10-14T07:37:22.041Z,926.06
2016-10-14T07:38:34.997Z,926.06
2016-10-14T07:39:47.999Z,926.1
2016-10-14T07:41:01.496Z,926.13
2016-10-14T07:42:14.503Z,926.14
2016-10-14T07:43:27.531Z,926.21
2016-10-14T07:44:41.016Z,926.28
2016-10-14T07:45:54.071Z,926.29
2016-10-14T07:47:07.632Z,926.27
2016-10-14T07:48:21.150Z,926.28
2016-10-14T07:49:33.629Z,926.28
2016-10-14T07:50:46.709Z,926.32
2016-10-14T07:51:59.721Z,926.31
2016-10-14T07:53:12.735Z,926.3
2016-10-14T07:54:26.281Z,926.36
2016-10-14T07:55:39.279Z,926.39
2016-10-14T07:56:51.775Z,926.42
2016-10-14T07:58:04.298Z,926.44
2016-10-14T07:59:17.866Z,926.48
2016-10-14T08:00:31.433Z,926.54
2016-10-14T08:01:43.921Z,926.57
2016-10-14T08:02:57.557Z,926.63
2016-10-14T08:04:11.158Z,926.72
2016-10-14T08:05:24.642Z,926.73
2016-10-14T08:06:37.119Z,926.75
2016-10-14T08:07:50.700Z,926.79
2016-10-14T08:09:03.714Z,926.84
2016-10-14T08:10:17.272Z,926.86
2016-10-14T08:11:30.337Z,926.84
2016-10-14T08:12:43.878Z,926.83
2016-10-14T08:13:56.872Z,926.79
2016-10-14T08:15:09.879Z,926.81
2016-10-14T08:16:23.431Z,926.77
2016-10-14T08:17:36.460Z,926.72
2016-10-14T08:18:48.943Z,926.67
2016-10-14T08:20:02.487Z,926.68
2016-10-14T08:21:15.952Z,926.63
2016-10-14T08:22:28.940Z,926.64
2016-10-14T08:23:41.938Z,926.67
2016-10-14T08:24:54.965Z,926.72
2016-10-14T08:26:08.516Z,926.82
2016-10-14T08:27:21.490Z,926.89
2016-10-14T08:28:34.987Z,926.9
2016-10-14T08:29:47.997Z,926.93
2016-10-14T08:31:00.018Z,926.88
2016-10-14T08:32:12.991Z,926.88
2016-10-14T08:33:26.480Z,926.95
2016-10-14T08:34:39.513Z,926.93
2016-10-14T08:35:52.524Z,926.95
2016-10-14T08:37:06.049Z,926.95
2016-10-14T08:38:19.628Z,926.94
2016-10-14T08:39:32.130Z,926.97
2016-10-14T08:40:45.180Z,926.98
2016-10-14T08:41:58.740Z,926.97
2016-10-14T08:43:11.762Z,927
2016-10-14T08:44:24.801Z,927.02
2016-10-14T08:45:38.314Z,926.99
2016-10-14T08:46:51.514Z,927.04
2016-10-14T08:48:04.573Z,927.07
2016-10-14T08:49:18.182Z,927.14
2016-10-14T08:50:30.627Z,927.16
2016-10-14T08:51:43.081Z,927.19
2016-10-14T08:52:56.558Z,927.22
2016-10-14T08:54:10.067Z,927.24
2016-10-14T08:55:23.067Z,927.23
2016-10-14T08:56:36.672Z,927.25
2016-10-14T08:57:49.686Z,927.27
2016-10-14T08:59:02.704Z,927.25
2016-10-14T09:00:15.823Z,927.27
2016-10-14T09:01:28.886Z,927.31
2016-10-14T09:02:41.660Z,927.3
2016-10-14T09:03:54.811Z,927.34
2016-10-14T09:05:07.335Z,927.34
2016-10-14T09:06:20.375Z,927.38
2016-10-14T09:07:33.965Z,927.39
2016-10-14T09:08:46.971Z,927.38
2016-10-14T09:10:00.543Z,927.36
2016-10-14T09:11:14.079Z,927.38
2016-10-14T09:12:27.166Z,927.4
2016-10-14T09:13:40.770Z,927.39
2016-10-14T09:14:54.347Z,927.39
2016-10-14T09:16:07.870Z,927.44
2016-10-14T09:17:20.341Z,927.38
2016-10-14T09:18:33.875Z,927.44
2016-10-14T09:19:47.463Z,927.45
2016-10-14T09:21:00.482Z,927.47
2016-10-14T09:22:14.073Z,927.46
2016-10-14T09:23:27.132Z,927.48
2016-10-14T09:24:40.146Z,927.46
2016-10-14T09:25:53.223Z,927.42
2016-10-14T09:27:06.761Z,927.42
2016-10-14T09:28:20.257Z,927.46
2016-10-14T09:29:33.801Z,927.49
2016-10-14T09:30:47.392Z,927.51
2016-10-14T09:32:00.441Z,927.48
2016-10-14T09:33:12.968Z,927.55
2016-10-14T09:34:25.985Z,927.55
2016-10-14T09:35:38.981Z,927.58
2016-10-14T09:36:52.005Z,927.56
2016-10-14T09:38:05.034Z,927.57
2016-10-14T09:39:18.756Z,927.55
2016-10-14T09:40:32.423Z,927.54
2016-10-14T09:41:45.427Z,927.54
2016-10-14T09:42:56.872Z,927.58
2016-10-14T09:44:10.105Z,927.55
2016-10-14T09:45:22.666Z,927.59
2016-10-14T09:46:36.246Z,927.6
2016-10-14T09:47:48.793Z,927.59
2016-10-14T09:49:02.381Z,927.6
2016-10-14T09:50:15.396Z,927.58
2016-10-14T09:51:28.999Z,927.63
2016-10-14T09:52:42.018Z,927.63
2016-10-14T09:53:55.101Z,927.71
2016-10-14T09:55:08.681Z,927.69
2016-10-14T09:56:21.825Z,927.73
2016-10-14T09:57:35.431Z,927.76
2016-10-14T09:58:47.981Z,927.79
2016-10-14T10:00:01.546Z,927.85
2016-10-14T10:01:14.538Z,927.86
2016-10-14T10:02:27.522Z,927.9
2016-10-14T10:03:41.152Z,927.99
2016-10-14T10:04:54.668Z,927.97
2016-10-14T10:06:07.735Z,928.06
2016-10-14T10:07:20.223Z,928.04
2016-10-14T10:08:33.741Z,928.03
2016-10-14T10:09:46.700Z,928.09
2016-10-14T10:10:59.768Z,928.15
2016-10-14T10:12:12.845Z,928.14
2016-10-14T10:13:26.348Z,928.16
2016-10-14T10:14:38.855Z,928.18
2016-10-14T10:15:51.895Z,928.19
2016-10-14T10:17:05.467Z,928.24
2016-10-14T10:18:19.009Z,928.25
2016-10-14T10:19:32.576Z,928.29
2016-10-14T10:20:45.603Z,928.33
2016-10-14T10:21:59.220Z,928.3
2016-10-14T10:23:12.283Z,928.32
2016-10-14T10:24:25.828Z,928.34
2016-10-14T10:25:39.360Z,928.3
2016-10-14T10:26:52.951Z,928.38
2016-10-14T10:28:05.483Z,928.39
2016-10-14T10:29:18.506Z,928.4
2016-10-14T10:30:31.009Z,928.41
2016-10-14T10:31:43.546Z,928.45
2016-10-14T10:32:56.496Z,928.42
2016-10-14T10:34:08.002Z,928.47
2016-10-14T10:35:21.077Z,928.44
2016-10-14T10:36:34.123Z,928.54
2016-10-14T10:37:47.203Z,928.5
2016-10-14T10:39:00.738Z,928.51
2016-10-14T10:40:13.795Z,928.53
2016-10-14T10:41:26.298Z,928.55
2016-10-14T10:42:39.897Z,928.55
2016-10-14T10:43:53.468Z,928.59
2016-10-14T10:45:07.063Z,928.63
2016-10-14T10:46:20.076Z,928.8
2016-10-14T10:47:33.672Z,928.91
2016-10-14T10:48:46.791Z,928.74
2016-10-14T10:50:00.389Z,928.96
2016-10-14T10:51:13.469Z,928.6
2016-10-14T10:52:27.013Z,928.99
2016-10-14T10:53:40.107Z,929.03
2016-10-14T10:54:53.081Z,929.05
2016-10-14T10:56:06.619Z,928.87
2016-10-14T10:57:20.210Z,928.71
2016-10-14T10:58:33.824Z,928.73
2016-10-14T10:59:46.837Z,928.73
2016-10-14T11:01:00.396Z,928.73
2016-10-14T11:02:13.992Z,928.71
2016-10-14T11:03:26.994Z,928.75
2016-10-14T11:04:40.566Z,928.74
2016-10-14T11:05:53.591Z,928.81
2016-10-14T11:07:06.664Z,928.79
2016-10-14T11:08:19.677Z,928.76
2016-10-14T11:09:32.762Z,928.78
2016-10-14T11:10:46.422Z,928.78
2016-10-14T11:11:59.980Z,928.8
2016-10-14T11:13:13.562Z,928.79
2016-10-14T11:14:26.627Z,928.77
2016-10-14T11:15:40.290Z,928.81
2016-10-14T11:16:53.823Z,928.8
2016-10-14T11:18:06.817Z,928.83
2016-10-14T11:19:20.397Z,928.85
2016-10-14T11:20:33.529Z,928.8
2016-10-14T11:21:47.317Z,928.86
2016-10-14T11:23:00.386Z,929.14
2016-10-14T11:24:13.340Z,929.2
2016-10-14T11:25:26.896Z,929.18
2016-10-14T11:26:39.415Z,929.21
2016-10-14T11:27:52.518Z,929.07
2016-10-14T11:29:05.566Z,929.03
2016-10-14T11:30:18.101Z,928.92
2016-10-14T11:31:31.706Z,928.95
2016-10-14T11:32:45.252Z,928.94
2016-10-14T11:33:58.749Z,928.89
2016-10-14T11:35:12.307Z,928.89
2016-10-14T11:36:25.394Z,928.86
2016-10-14T11:37:38.674Z,928.85
2016-10-14T11:38:50.713Z,928.84
2016-10-14T11:40:04.254Z,928.84
2016-10-14T11:41:17.293Z,928.83
2016-10-14T11:42:30.371Z,928.71
2016-10-14T11:43:43.963Z,928.75
2016-10-14T11:44:57.006Z,929.15
2016-10-14T11:46:10.632Z,929.13
2016-10-14T11:47:24.243Z,929.14
2016-10-14T11:48:37.288Z,929.09
2016-10-14T11:49:50.337Z,929.09
2016-10-14T11:51:03.376Z,929.14
2016-10-14T11:52:16.358Z,929.1
2016-10-14T11:53:29.919Z,929.16
2016-10-14T11:54:42.948Z,929.01
2016-10-14T11:55:56.008Z,929.1
2016-10-14T11:57:08.991Z,929.09
2016-10-14T11:58:22.555Z,929.07
2016-10-14T11:59:36.112Z,929.08
2016-10-14T12:00:49.238Z,929.09
2016-10-14T12:02:02.726Z,929.12
2016-10-14T12:03:16.387Z,929.15
2016-10-14T12:04:28.951Z,929.17
2016-10-14T12:05:41.688Z,929.22
2016-10-14T12:06:55.273Z,929.22
2016-10-14T12:08:08.896Z,929.2
2016-10-14T12:09:21.947Z,929.24
2016-10-14T12:10:35.563Z,929.19
2016-10-14T12:11:48.616Z,929.28
2016-10-14T12:13:02.183Z,929.38
2016-10-14T12:14:15.255Z,929.31
2016-10-14T12:15:28.817Z,929.36
2016-10-14T12:16:41.849Z,929.32
2016-10-14T12:17:54.930Z,929.3
2016-10-14T12:19:08.502Z,929.31
2016-10-14T12:20:22.066Z,929.34
2016-10-14T12:21:35.082Z,929.3
2016-10-14T12:22:48.734Z,929.28
2016-10-14T12:24:01.841Z,929.12
2016-10-14T12:25:14.897Z,929.39
2016-10-14T12:26:28.020Z,929.36
2016-10-14T12:27:41.583Z,929.33
2016-10-14T12:28:55.187Z,929.37
2016-10-14T12:30:08.761Z,929.27
2016-10-14T12:31:20.757Z,929.26
2016-10-14T12:32:34.277Z,929.25
2016-10-14T12:33:47.417Z,929.21
2016-10-14T12:35:00.946Z,929.38
2016-10-14T12:36:13.996Z,929.09
2016-10-14T12:37:27.040Z,929.57
2016-10-14T12:38:40.689Z,929.13
2016-10-14T12:39:54.268Z,929.08
2016-10-14T12:41:07.305Z,929.06
2016-10-14T12:42:20.860Z,928.99
2016-10-14T12:43:33.946Z,928.98
2016-10-14T12:44:47.555Z,928.95
2016-10-14T12:46:01.085Z,928.9
2016-10-14T12:47:14.674Z,928.98
2016-10-14T12:48:27.703Z,928.95
2016-10-14T12:49:40.788Z,928.97
2016-10-14T12:50:54.390Z,928.82
2016-10-14T12:52:06.437Z,928.86
2016-10-14T12:53:18.452Z,928.91
2016-10-14T12:54:32.006Z,928.91
2016-10-14T12:55:45.047Z,928.89
2016-10-14T12:56:58.055Z,928.87
2016-10-14T12:58:10.566Z,928.81
2016-10-14T12:59:23.611Z,928.79
2016-10-14T13:00:36.158Z,928.82
2016-10-14T13:01:48.142Z,928.8
2016-10-14T13:03:01.278Z,928.74
2016-10-14T13:04:14.330Z,928.81
2016-10-14T13:05:26.820Z,928.8
2016-10-14T13:06:39.365Z,928.77
2016-10-14T13:07:52.401Z,928.79
2016-10-14T13:09:04.919Z,928.72
2016-10-14T13:10:17.441Z,928.77
2016-10-14T13:11:30.681Z,928.69
2016-10-14T13:12:44.296Z,928.69
2016-10-14T13:13:57.391Z,928.65
2016-10-14T13:15:08.902Z,928.63
2016-10-14T13:16:22.507Z,928.61
2016-10-14T13:17:35.527Z,928.57
2016-10-14T13:18:48.575Z,928.67
2016-10-14T13:20:01.596Z,928.56
2016-10-14T13:21:15.217Z,928.61
2016-10-14T13:22:28.829Z,928.62
2016-10-14T13:23:41.567Z,928.61
2016-10-14T13:24:54.085Z,928.7
2016-10-14T13:26:06.628Z,928.63
2016-10-14T13:27:19.190Z,928.57
2016-10-14T13:28:32.720Z,928.55
2016-10-14T13:29:45.778Z,928.6
2016-10-14T13:30:58.297Z,928.53
2016-10-14T13:32:11.940Z,928.62
2016-10-14T13:33:24.975Z,928.56
2016-10-14T13:34:38.089Z,928.52
2016-10-14T13:35:50.537Z,928.52
2016-10-14T13:37:04.160Z,928.49
2016-10-14T13:38:16.162Z,928.48
2016-10-14T13:39:28.666Z,928.46
2016-10-14T13:40:40.634Z,928.51
2016-10-14T13:41:53.774Z,928.5
2016-10-14T13:43:06.771Z,928.47
2016-10-14T13:44:20.332Z,928.48
2016-10-14T13:45:32.853Z,928.44
2016-10-14T13:46:45.338Z,928.51
2016-10-14T13:47:58.434Z,928.43
2016-10-14T13:49:12.014Z,928.44
2016-10-14T13:50:25.057Z,928.42
2016-10-14T13:51:38.645Z,928.42
2016-10-14T13:52:52.240Z,928.36
2016-10-14T13:54:04.265Z,928.31
2016-10-14T13:55:16.285Z,928.29
2016-10-14T13:56:29.288Z,928.27
2016-10-14T13:57:42.348Z,928.35
2016-10-14T13:58:55.423Z,928.19
2016-10-14T14:00:09.001Z,928.27
2016-10-14T14:01:21.584Z,928.22
2016-10-14T14:02:35.180Z,928.15
2016-10-14T14:03:48.219Z,928.12
2016-10-14T14:05:01.798Z,928.2
2016-10-14T14:06:13.827Z,928.17
2016-10-14T14:07:26.353Z,928.12
2016-10-14T14:08:39.942Z,928.05
2016-10-14T14:09:53.010Z,928.04
2016-10-14T14:11:06.125Z,928.06
2016-10-14T14:12:19.187Z,928.11
2016-10-14T14:13:32.791Z,928.11
2016-10-14T14:14:46.582Z,928.02
2016-10-14T14:15:59.025Z,928.1
2016-10-14T14:17:11.550Z,928.05
2016-10-14T14:18:24.073Z,927.99
2016-10-14T14:19:37.124Z,927.97
2016-10-14T14:20:50.202Z,927.94
2016-10-14T14:22:03.791Z,927.98
2016-10-14T14:23:17.367Z,927.99
2016-10-14T14:24:31.029Z,928.02
2016-10-14T14:25:44.148Z,928.07
2016-10-14T14:26:57.742Z,928.07
2016-10-14T14:28:11.396Z,928
2016-10-14T14:29:24.385Z,928.01
2016-10-14T14:30:37.376Z,927.98
2016-10-14T14:31:50.409Z,927.95
2016-10-14T14:33:03.915Z,927.99
2016-10-14T14:34:16.946Z,928.02
2016-10-14T14:35:29.952Z,928.11
2016-10-14T14:36:42.523Z,928.04
2016-10-14T14:37:55.089Z,928.05
2016-10-14T14:39:08.144Z,927.99
2016-10-14T14:40:20.759Z,928.05
2016-10-14T14:41:33.779Z,928.04
2016-10-14T14:42:46.788Z,928.07
2016-10-14T14:43:59.833Z,928.09
2016-10-14T14:45:12.878Z,928.19
2016-10-14T14:46:25.478Z,928.07
2016-10-14T14:47:38.508Z,928.06
2016-10-14T14:48:49.959Z,928.02
2016-10-14T14:50:03.563Z,928.02
2016-10-14T14:51:16.621Z,928
2016-10-14T14:52:30.214Z,927.96
2016-10-14T14:53:43.250Z,927.98
2016-10-14T14:54:55.225Z,927.98
2016-10-14T14:56:08.219Z,927.99
2016-10-14T14:57:21.229Z,927.98
2016-10-14T14:58:34.244Z,928.04
2016-10-14T14:59:47.793Z,928.07
2016-10-14T15:01:01.327Z,928.01
2016-10-14T15:02:13.336Z,928.04
2016-10-14T15:03:26.923Z,927.97
2016-10-14T15:04:40.051Z,927.99
2016-10-14T15:05:52.551Z,927.9
2016-10-14T15:07:05.121Z,927.92
2016-10-14T15:08:17.644Z,927.95
2016-10-14T15:09:31.372Z,927.95
2016-10-14T15:10:43.901Z,927.91
2016-10-14T15:11:55.897Z,927.92
2016-10-14T15:13:08.965Z,927.91
2016-10-14T15:14:21.478Z,927.86